createdAt,value
2019-02-22T00:01:15.447Z,85.20
2019-02-22T00:03:48.606Z,72.60
2019-02-22T00:06:21.816Z,83.97
2019-02-22T00:08:55.096Z,79.90
2019-02-22T00:11:28.309Z,80.10
2019-02-22T00:14:01.566Z,76.70
2019-02-22T00:16:34.948Z,60.90
2019-02-22T00:19:09.104Z,74.53
2019-02-22T00:21:42.390Z,75.27
2019-02-22T00:24:15.546Z,71.70
2019-02-22T00:26:48.879Z,70.90
2019-02-22T00:29:22.025Z,74.87
2019-02-22T00:31:57.160Z,80.07
2019-02-22T00:34:42.778Z,68.10
2019-02-22T00:37:19.725Z,72.90
2019-02-22T00:39:52.958Z,68.33
2019-02-22T00:42:26.144Z,65.90
2019-02-22T00:44:59.290Z,66.60
2019-02-22T00:47:32.416Z,61.80
2019-02-22T00:50:06.165Z,61.23
2019-02-22T00:52:39.398Z,63.47
2019-02-22T00:55:12.546Z,63.37
2019-02-22T01:01:14.085Z,50.90
2019-02-22T01:06:32.359Z,59.67
2019-02-22T01:09:06.212Z,53.57
2019-02-22T01:11:55.080Z,62.93
2019-02-22T01:14:28.296Z,63.50
2019-02-22T01:17:01.475Z,68.47
2019-02-22T01:19:34.788Z,74.37
2019-02-22T01:22:07.936Z,68.00
2019-02-22T01:24:41.257Z,64.90
2019-02-22T01:27:14.515Z,58.67
2019-02-22T01:35:38.169Z,32.13
2019-02-22T01:38:11.438Z,41.07
2019-02-22T01:40:44.643Z,37.10
2019-02-22T01:43:17.803Z,22.73
2019-02-22T01:45:58.228Z,29.90
2019-02-22T01:48:32.460Z,24.57
2019-02-22T01:51:05.719Z,25.83
2019-02-22T01:53:38.882Z,22.37
2019-02-22T01:56:12.002Z,25.00
2019-02-22T01:58:56.191Z,19.27
2019-02-22T02:01:29.508Z,21.07
2019-02-22T02:04:02.655Z,21.00
2019-02-22T02:06:35.856Z,22.03
2019-02-22T02:09:10.395Z,26.17
2019-02-22T02:11:53.683Z,28.00
2019-02-22T02:14:26.798Z,24.90
2019-02-22T02:17:08.245Z,26.33
2019-02-22T02:19:41.419Z,33.17
2019-02-22T02:22:14.726Z,21.90
2019-02-22T02:27:33.509Z,13.70
2019-02-22T02:30:09.865Z,12.53
2019-02-22T02:32:44.649Z,11.90
2019-02-22T02:35:17.806Z,11.07
2019-02-22T02:37:50.978Z,14.90
2019-02-22T02:40:25.527Z,8.03
2019-02-22T02:43:00.296Z,8.73
2019-02-22T02:46:02.256Z,6.63
2019-02-22T02:48:35.442Z,6.87
2019-02-22T02:51:08.600Z,4.93
2019-02-22T02:53:50.658Z,4.40
2019-02-22T02:56:23.859Z,5.10
2019-02-22T02:58:57.074Z,4.57
2019-02-22T03:01:31.218Z,6.47
2019-02-22T03:04:05.045Z,5.23
2019-02-22T03:06:42.622Z,5.17
2019-02-22T03:09:15.838Z,5.63
2019-02-22T03:12:27.635Z,5.97
2019-02-22T03:15:00.855Z,3.80
2019-02-22T03:17:34.297Z,5.93
2019-02-22T03:20:10.373Z,6.33
2019-02-22T03:22:43.511Z,7.83
2019-02-22T03:25:16.799Z,4.60
2019-02-22T03:27:50.846Z,4.40
2019-02-22T03:30:24.029Z,4.33
2019-02-22T03:32:57.226Z,4.10
2019-02-22T03:35:30.440Z,4.90
2019-02-22T03:38:05.984Z,4.40
2019-02-22T03:40:39.297Z,5.00
2019-02-22T03:43:12.426Z,5.40
2019-02-22T03:45:45.634Z,3.93
2019-02-22T03:48:18.882Z,4.60
2019-02-22T03:50:52.102Z,4.40
2019-02-22T03:53:26.827Z,4.70
2019-02-22T03:56:00.038Z,5.00
2019-02-22T03:58:33.286Z,5.20
2019-02-22T04:01:07.975Z,7.87
2019-02-22T04:03:41.214Z,10.67
2019-02-22T04:06:14.477Z,6.73
2019-02-22T04:08:47.544Z,5.10
2019-02-22T04:11:20.726Z,9.33
2019-02-22T04:13:54.030Z,5.87
2019-02-22T04:16:40.563Z,6.43
2019-02-22T04:19:13.717Z,8.93
2019-02-22T04:21:47.006Z,9.07
2019-02-22T04:24:20.245Z,6.97
2019-02-22T04:26:53.627Z,8.57
2019-02-22T04:29:26.774Z,3.87
2019-02-22T04:32:25.400Z,5.10
2019-02-22T04:34:58.580Z,5.63
2019-02-22T04:37:31.849Z,10.33
2019-02-22T04:40:06.322Z,6.27
2019-02-22T04:42:39.620Z,7.10
2019-02-22T04:48:14.668Z,4.53
2019-02-22T04:50:47.945Z,7.97
2019-02-22T04:53:21.160Z,5.87
2019-02-22T04:55:54.423Z,6.00
2019-02-22T04:58:27.703Z,6.33
2019-02-22T05:01:00.988Z,6.50
2019-02-22T05:03:34.327Z,5.97
2019-02-22T05:06:07.470Z,9.10
2019-02-22T05:08:40.818Z,10.97
2019-02-22T05:11:18.500Z,8.20
2019-02-22T05:13:51.937Z,6.27
2019-02-22T05:16:26.470Z,5.77
2019-02-22T05:19:03.845Z,5.30
2019-02-22T05:21:36.989Z,7.00
2019-02-22T05:24:14.285Z,6.33
2019-02-22T05:26:47.546Z,7.03
2019-02-22T05:32:32.579Z,7.03
2019-02-22T05:35:05.924Z,6.77
2019-02-22T05:37:39.113Z,6.70
2019-02-22T05:40:13.765Z,11.27
2019-02-22T05:42:47.023Z,12.90
2019-02-22T05:45:24.710Z,13.90
2019-02-22T05:47:59.019Z,16.23
2019-02-22T05:50:32.180Z,14.37
2019-02-22T05:53:06.805Z,16.93
2019-02-22T05:55:39.978Z,14.10
2019-02-22T06:01:06.736Z,25.77
2019-02-22T06:03:39.165Z,11.80
2019-02-22T06:06:31.568Z,11.13
2019-02-22T06:09:05.534Z,12.73
2019-02-22T06:11:38.834Z,5.93
2019-02-22T06:14:11.987Z,60.30
2019-02-22T06:16:45.306Z,8.17
2019-02-22T06:19:18.620Z,5.80
2019-02-22T06:21:51.811Z,47.63
2019-02-22T06:24:24.966Z,8.63
2019-02-22T06:26:58.290Z,38.03
2019-02-22T06:29:31.445Z,16.23
2019-02-22T06:32:04.711Z,10.20
2019-02-22T06:34:37.907Z,5.13
2019-02-22T06:37:11.092Z,6.33
2019-02-22T06:39:44.351Z,10.03
2019-02-22T06:42:19.017Z,11.00
2019-02-22T06:44:53.437Z,8.47
2019-02-22T06:47:29.909Z,10.97
2019-02-22T06:50:03.071Z,13.93
2019-02-22T06:52:36.345Z,16.20
2019-02-22T06:55:09.639Z,18.90
2019-02-22T06:57:42.856Z,9.87
2019-02-22T07:00:16.077Z,4.97
2019-02-22T07:02:50.792Z,13.17
2019-02-22T07:05:24.024Z,10.37
2019-02-22T07:07:57.197Z,10.03
2019-02-22T07:10:31.889Z,10.37
2019-02-22T07:13:06.788Z,8.53
2019-02-22T07:15:40.099Z,6.60
2019-02-22T07:18:13.286Z,16.87
2019-02-22T07:20:46.578Z,14.50
2019-02-22T07:23:19.833Z,12.70
2019-02-22T07:25:52.975Z,7.40
2019-02-22T07:28:26.155Z,8.63
2019-02-22T07:30:59.292Z,8.43
2019-02-22T07:33:32.482Z,7.57
2019-02-22T07:36:05.636Z,29.07
2019-02-22T07:38:38.769Z,24.83
2019-02-22T07:41:13.321Z,35.30
2019-02-22T07:43:46.551Z,13.43
2019-02-22T07:46:19.879Z,16.07
2019-02-22T07:48:53.213Z,17.17
2019-02-22T07:51:27.563Z,3.90
2019-02-22T07:54:00.760Z,3.67
2019-02-22T07:56:33.893Z,3.77
2019-02-22T07:59:07.368Z,4.37
2019-02-22T08:01:47.468Z,4.53
2019-02-22T08:04:18.370Z,7.93
2019-02-22T08:06:51.777Z,6.67
2019-02-22T08:09:25.517Z,9.90
2019-02-22T08:11:58.681Z,13.40
2019-02-22T08:14:32.017Z,10.40
2019-02-22T08:17:05.210Z,22.80
2019-02-22T08:19:38.428Z,10.63
2019-02-22T08:22:11.647Z,23.07
2019-02-22T08:24:45.017Z,11.47
2019-02-22T08:27:18.426Z,27.87
2019-02-22T08:29:51.986Z,5.97
2019-02-22T08:32:25.284Z,10.60
2019-02-22T08:34:58.596Z,5.43
2019-02-22T08:37:32.378Z,12.57
2019-02-22T08:40:09.215Z,9.97
2019-02-22T08:42:42.408Z,12.10
2019-02-22T08:45:17.007Z,28.00
2019-02-22T08:47:53.312Z,7.77
2019-02-22T08:50:26.561Z,10.73
2019-02-22T08:52:59.945Z,8.50
2019-02-22T08:55:36.660Z,12.67
2019-02-22T08:58:10.577Z,7.30
2019-02-22T09:00:44.283Z,7.23
2019-02-22T09:03:17.506Z,5.73
2019-02-22T09:05:50.836Z,6.03
2019-02-22T09:08:24.132Z,14.93
2019-02-22T09:11:00.789Z,8.40
2019-02-22T09:13:43.104Z,18.37
2019-02-22T09:16:09.118Z,6.70
2019-02-22T09:18:42.413Z,5.57
2019-02-22T09:21:16.148Z,7.40
2019-02-22T09:23:49.292Z,6.00
2019-02-22T09:26:25.358Z,8.90
2019-02-22T09:28:58.658Z,12.70
2019-02-22T09:31:31.913Z,8.73
2019-02-22T09:34:05.207Z,4.63
2019-02-22T09:40:43.624Z,5.23
2019-02-22T09:43:17.257Z,7.20
2019-02-22T09:45:50.614Z,5.07
2019-02-22T09:48:23.967Z,3.90
2019-02-22T09:50:57.410Z,9.13
2019-02-22T09:53:30.625Z,5.27
2019-02-22T09:56:05.104Z,8.90
2019-02-22T09:58:39.446Z,14.90
2019-02-22T10:01:12.797Z,15.77
2019-02-22T10:03:46.107Z,15.40
2019-02-22T10:06:19.515Z,47.37
2019-02-22T10:08:52.814Z,18.30
2019-02-22T10:11:26.169Z,14.20
2019-02-22T10:14:06.680Z,5.03
2019-02-22T10:16:34.329Z,3.57
2019-02-22T10:19:07.645Z,7.63
2019-02-22T10:21:40.947Z,7.47
2019-02-22T10:24:14.277Z,2.33
2019-02-22T10:26:48.064Z,8.77
2019-02-22T10:29:21.229Z,6.80
2019-02-22T10:31:54.576Z,6.17
2019-02-22T10:34:27.926Z,3.73
2019-02-22T10:37:01.422Z,6.33
2019-02-22T10:39:34.721Z,4.17
2019-02-22T10:42:08.070Z,7.43
2019-02-22T10:44:41.482Z,15.57
2019-02-22T10:47:14.805Z,10.83
2019-02-22T10:49:48.153Z,2.80
2019-02-22T10:52:21.503Z,2.47
2019-02-22T10:54:54.797Z,5.93
2019-02-22T10:57:28.129Z,3.27
2019-02-22T11:00:01.424Z,5.50
2019-02-22T11:02:34.880Z,3.53
2019-02-22T11:05:08.610Z,3.83
2019-02-22T11:07:41.934Z,7.30
2019-02-22T11:10:16.431Z,4.80
2019-02-22T11:12:49.684Z,8.23
2019-02-22T11:15:22.976Z,4.97
2019-02-22T11:17:56.361Z,3.63
2019-02-22T11:20:29.578Z,4.90
2019-02-22T11:23:03.061Z,10.40
2019-02-22T11:25:36.370Z,6.30
2019-02-22T11:28:09.745Z,2.27
2019-02-22T11:30:43.041Z,4.37
2019-02-22T11:33:16.420Z,2.07
2019-02-22T11:35:49.825Z,3.67
2019-02-22T11:38:23.186Z,5.07
2019-02-22T11:40:56.487Z,8.63
2019-02-22T11:43:29.827Z,7.20
2019-02-22T11:46:03.045Z,9.03
2019-02-22T11:48:36.295Z,3.77
2019-02-22T11:51:09.740Z,7.17
2019-02-22T11:53:43.070Z,5.53
2019-02-22T11:56:17.721Z,6.20
2019-02-22T11:58:51.068Z,8.20
2019-02-22T12:01:24.457Z,14.00
2019-02-22T12:03:57.886Z,10.23
2019-02-22T12:06:31.256Z,9.50
2019-02-22T12:09:05.410Z,9.63
2019-02-22T12:11:40.225Z,4.50
2019-02-22T12:14:13.621Z,6.17
2019-02-22T12:16:46.903Z,7.50
2019-02-22T12:19:20.260Z,4.33
2019-02-22T12:21:54.860Z,3.63
2019-02-22T12:24:28.138Z,5.07
2019-02-22T12:27:01.328Z,4.60
2019-02-22T12:29:34.829Z,13.97
2019-02-22T12:32:08.105Z,5.67
2019-02-22T12:34:41.454Z,6.83
2019-02-22T12:37:14.659Z,4.47
2019-02-22T12:39:48.073Z,5.67
2019-02-22T12:42:21.444Z,6.73
2019-02-22T12:45:02.534Z,4.17
2019-02-22T12:47:29.728Z,6.73
2019-02-22T12:50:08.460Z,6.10
2019-02-22T12:52:41.666Z,5.23
2019-02-22T12:55:14.907Z,4.30
2019-02-22T12:57:48.158Z,2.87
2019-02-22T13:00:22.097Z,4.23
2019-02-22T13:03:02.047Z,4.77
2019-02-22T13:05:31.910Z,3.20
2019-02-22T13:08:05.179Z,8.50
2019-02-22T13:10:38.538Z,3.33
2019-02-22T13:13:11.858Z,5.30
2019-02-22T13:15:45.235Z,6.10
2019-02-22T13:18:18.527Z,4.67
2019-02-22T13:20:53.371Z,5.17
2019-02-22T13:23:26.632Z,3.27
2019-02-22T13:26:00.001Z,3.83
2019-02-22T13:28:33.258Z,4.87
2019-02-22T13:31:06.595Z,3.23
2019-02-22T13:33:40.074Z,6.30
2019-02-22T13:36:13.522Z,14.57
2019-02-22T13:38:46.839Z,4.93
2019-02-22T13:41:20.233Z,6.67
2019-02-22T13:43:53.477Z,8.87
2019-02-22T13:46:26.763Z,9.27
2019-02-22T13:49:01.348Z,6.40
2019-02-22T13:51:35.840Z,6.47
2019-02-22T13:54:09.030Z,9.47
2019-02-22T13:56:42.388Z,6.23
2019-02-22T13:59:15.769Z,5.20
2019-02-22T14:01:49.210Z,3.93
2019-02-22T14:04:22.504Z,4.33
2019-02-22T14:07:08.998Z,3.60
2019-02-22T14:09:42.428Z,7.03
2019-02-22T14:12:15.750Z,20.00
2019-02-22T14:14:49.106Z,11.57
2019-02-22T14:17:22.715Z,6.90
2019-02-22T14:19:56.087Z,12.13
2019-02-22T14:22:30.537Z,7.57
2019-02-22T14:25:03.857Z,16.53
2019-02-22T14:27:37.319Z,11.13
2019-02-22T14:30:17.085Z,9.10
2019-02-22T14:32:51.136Z,14.20
2019-02-22T14:35:25.462Z,141.60
2019-02-22T14:38:00.047Z,298.37
2019-02-22T14:40:34.235Z,407.30
2019-02-22T14:43:16.194Z,181.00
2019-02-22T14:45:49.323Z,177.70
2019-02-22T14:48:21.058Z,123.90
2019-02-22T14:50:57.239Z,7.40
2019-02-22T14:53:34.126Z,15.83
2019-02-22T14:56:11.124Z,23.43
2019-02-22T14:58:44.634Z,16.20
2019-02-22T15:01:20.100Z,11.47
2019-02-22T15:03:54.569Z,10.30
2019-02-22T15:06:30.301Z,18.47
2019-02-22T15:09:06.198Z,8.47
2019-02-22T15:11:41.788Z,9.03
2019-02-22T15:14:18.354Z,10.53
2019-02-22T15:17:11.941Z,25.57
2019-02-22T15:19:51.105Z,17.40
2019-02-22T15:22:26.305Z,19.43
2019-02-22T15:25:00.240Z,30.80
2019-02-22T15:27:36.234Z,38.30
2019-02-22T15:30:14.452Z,79.87
2019-02-22T15:32:48.428Z,41.17
2019-02-22T15:35:22.540Z,61.63
2019-02-22T15:37:56.538Z,37.53
2019-02-22T15:40:30.393Z,16.73
2019-02-22T15:43:03.875Z,30.13
2019-02-22T15:45:37.086Z,23.27
2019-02-22T15:48:10.708Z,19.90
2019-02-22T15:50:47.707Z,105.00
2019-02-22T15:53:21.925Z,23.30
2019-02-22T15:55:56.469Z,57.93
2019-02-22T15:58:30.468Z,36.77
2019-02-22T16:01:04.595Z,48.63
2019-02-22T16:03:49.380Z,11.83
2019-02-22T16:06:24.698Z,17.43
2019-02-22T16:09:01.070Z,82.57
2019-02-22T16:11:37.840Z,170.27
2019-02-22T16:14:13.949Z,89.63
2019-02-22T16:16:49.828Z,52.43
2019-02-22T16:19:23.739Z,409.07
2019-02-22T16:21:57.235Z,52.67
2019-02-22T16:24:30.836Z,65.80
2019-02-22T16:27:06.378Z,28.37
2019-02-22T16:29:41.064Z,74.70
2019-02-22T16:32:15.268Z,11.70
2019-02-22T16:34:49.736Z,28.07
2019-02-22T16:37:23.753Z,19.00
2019-02-22T16:39:56.951Z,26.77
2019-02-22T16:42:30.383Z,20.73
2019-02-22T16:45:05.116Z,21.70
2019-02-22T16:47:40.416Z,41.43
2019-02-22T16:50:15.572Z,33.10
2019-02-22T16:52:51.101Z,149.23
2019-02-22T16:55:25.802Z,282.10
2019-02-22T16:58:00.379Z,712.10
2019-02-22T17:00:36.009Z,192.43
2019-02-22T17:03:09.456Z,371.23
2019-02-22T17:05:45.344Z,72.30
2019-02-22T17:08:19.171Z,70.27
2019-02-22T17:10:53.239Z,41.40
2019-02-22T17:13:27.084Z,86.40
2019-02-22T17:16:00.525Z,116.10
2019-02-22T17:18:34.975Z,75.13
2019-02-22T17:21:08.678Z,26.23
2019-02-22T17:23:42.588Z,35.87
2019-02-22T17:26:16.583Z,33.83
2019-02-22T17:28:50.193Z,33.30
2019-02-22T17:31:23.508Z,48.20
2019-02-22T17:33:57.412Z,32.27
2019-02-22T17:36:33.954Z,23.33
2019-02-22T17:39:11.870Z,24.97
2019-02-22T17:41:48.148Z,25.03
2019-02-22T17:44:24.220Z,29.87
2019-02-22T17:47:00.324Z,27.60
2019-02-22T17:49:36.219Z,27.93
2019-02-22T17:52:10.848Z,25.27
2019-02-22T17:54:44.180Z,38.07
2019-02-22T17:57:18.449Z,49.80
2019-02-22T17:59:51.951Z,37.83
2019-02-22T18:02:25.091Z,34.87
2019-02-22T18:04:58.398Z,52.63
2019-02-22T18:11:04.629Z,50.93
2019-02-22T18:13:37.891Z,32.03
2019-02-22T18:16:11.110Z,38.10
2019-02-22T18:18:44.353Z,38.57
2019-02-22T18:21:17.656Z,50.57
2019-02-22T18:23:51.737Z,54.30
2019-02-22T18:26:24.927Z,51.03
2019-02-22T18:28:58.107Z,47.73
2019-02-22T18:31:31.238Z,31.10
2019-02-22T18:34:04.341Z,45.40
2019-02-22T18:36:37.639Z,89.00
2019-02-22T18:39:11.318Z,38.93
2019-02-22T18:41:45.944Z,92.60
2019-02-22T18:44:20.422Z,75.40
2019-02-22T18:46:55.325Z,58.83
2019-02-22T18:49:28.753Z,53.00
2019-02-22T18:52:02.580Z,67.73
2019-02-22T18:54:36.662Z,83.50
2019-02-22T18:57:10.352Z,61.17
2019-02-22T18:59:44.301Z,38.40
2019-02-22T19:02:18.700Z,48.13
2019-02-22T19:04:52.766Z,26.87
2019-02-22T19:07:27.290Z,26.43
2019-02-22T19:10:01.542Z,31.47
2019-02-22T19:12:36.209Z,34.03
2019-02-22T19:15:14.129Z,29.30
2019-02-22T19:17:48.534Z,64.93
2019-02-22T19:20:22.743Z,56.97
2019-02-22T19:22:57.548Z,40.63
2019-02-22T19:25:31.903Z,20.00
2019-02-22T19:28:06.461Z,46.77
2019-02-22T19:30:41.100Z,50.50
2019-02-22T19:33:15.585Z,43.53
2019-02-22T19:35:50.740Z,51.83
2019-02-22T19:38:25.458Z,41.87
2019-02-22T19:41:02.262Z,34.17
2019-02-22T19:43:39.020Z,38.73
2019-02-22T19:46:14.583Z,42.07
2019-02-22T19:48:49.330Z,41.23
2019-02-22T19:51:25.567Z,29.07
2019-02-22T19:53:59.652Z,22.70
2019-02-22T19:56:34.128Z,28.43
2019-02-22T19:59:08.231Z,31.70
2019-02-22T20:01:42.649Z,27.03
2019-02-22T20:04:16.221Z,46.87
2019-02-22T20:06:49.588Z,34.27
2019-02-22T20:09:24.055Z,261.10
2019-02-22T20:11:57.806Z,45.27
2019-02-22T20:14:32.346Z,33.27
2019-02-22T20:17:05.659Z,35.13
2019-02-22T20:19:38.909Z,44.43
2019-02-22T20:22:12.332Z,44.23
2019-02-22T20:24:45.580Z,30.77
2019-02-22T20:27:18.710Z,243.67
2019-02-22T20:29:51.899Z,48.47
2019-02-22T20:32:25.163Z,24.30
2019-02-22T20:34:58.320Z,179.53
2019-02-22T20:37:31.600Z,29.63
2019-02-22T20:40:06.596Z,23.33
2019-02-22T20:42:39.816Z,35.43
2019-02-22T20:45:14.038Z,27.30
2019-02-22T20:47:47.341Z,36.13
2019-02-22T20:50:20.401Z,27.07
2019-02-22T20:52:53.695Z,26.73
2019-02-22T20:55:26.950Z,22.63
2019-02-22T20:58:00.241Z,28.60
2019-02-22T21:00:33.410Z,29.60
2019-02-22T21:03:06.705Z,26.60
2019-02-22T21:05:39.966Z,28.90
2019-02-22T21:08:13.238Z,93.73
2019-02-22T21:10:46.488Z,43.07
2019-02-22T21:13:21.058Z,68.07
2019-02-22T21:15:54.306Z,102.43
2019-02-22T21:18:27.616Z,40.40
2019-02-22T21:21:00.685Z,38.00
2019-02-22T21:23:34.014Z,45.93
2019-02-22T21:26:07.253Z,113.13
2019-02-22T21:28:41.449Z,89.57
2019-02-22T21:31:14.694Z,75.17
2019-02-22T21:33:47.909Z,113.63
2019-02-22T21:36:21.248Z,55.50
2019-02-22T21:38:54.520Z,56.00
2019-02-22T21:41:27.702Z,69.40
2019-02-22T21:44:00.902Z,88.23
2019-02-22T21:46:33.992Z,172.53
2019-02-22T21:49:07.187Z,76.23
2019-02-22T21:51:40.332Z,124.10
2019-02-22T21:54:13.627Z,104.57
2019-02-22T21:56:46.802Z,114.70
2019-02-22T21:59:19.936Z,159.37
2019-02-22T22:01:53.124Z,217.87
2019-02-22T22:04:27.262Z,111.90
2019-02-22T22:07:00.511Z,67.63
2019-02-22T22:09:33.907Z,161.07
2019-02-22T22:12:07.120Z,54.73
2019-02-22T22:14:43.801Z,42.93
2019-02-22T22:17:17.019Z,49.97
2019-02-22T22:19:50.268Z,37.77
2019-02-22T22:22:24.991Z,44.67
2019-02-22T22:24:58.378Z,36.53
2019-02-22T22:27:31.798Z,44.17
2019-02-22T22:30:10.574Z,55.30
2019-02-22T22:32:43.899Z,60.40
2019-02-22T22:35:19.146Z,56.93
2019-02-22T22:37:53.098Z,43.97
2019-02-22T22:40:26.390Z,70.97
2019-02-22T22:43:01.671Z,70.83
2019-02-22T22:45:34.579Z,68.43
2019-02-22T22:48:08.078Z,67.50
2019-02-22T22:50:41.359Z,108.20
2019-02-22T22:53:14.540Z,79.37
2019-02-22T22:55:47.821Z,90.83
2019-02-22T22:58:21.837Z,140.70
2019-02-22T23:01:17.496Z,116.63
2019-02-22T23:03:50.951Z,78.03
2019-02-22T23:06:24.271Z,60.80
2019-02-22T23:08:57.687Z,62.00
2019-02-22T23:11:31.006Z,114.17
2019-02-22T23:14:04.333Z,92.27
2019-02-22T23:16:37.628Z,157.07
2019-02-22T23:19:11.001Z,168.77
2019-02-22T23:21:44.294Z,155.90
2019-02-22T23:24:18.889Z,92.10
2019-02-22T23:26:51.990Z,168.20
2019-02-22T23:29:25.148Z,105.23
2019-02-22T23:31:58.605Z,87.90
2019-02-22T23:34:31.832Z,122.87
2019-02-22T23:37:05.119Z,77.77
2019-02-22T23:39:38.419Z,60.50
2019-02-22T23:42:13.221Z,69.07
2019-02-22T23:44:46.421Z,58.87
2019-02-22T23:47:19.797Z,59.10
2019-02-22T23:49:53.518Z,81.47
2019-02-22T23:52:26.890Z,75.03
2019-02-22T23:55:00.340Z,61.77
2019-02-22T23:57:33.581Z,55.23
